sensor_id;sensor_type;location;lat;lon;timestamp;temperature;humidity
25188;DHT22;13141;50.414;8.050;2023-04-01T00:01:47;12.10;99.90
25188;DHT22;13141;50.414;8.050;2023-04-01T00:04:12;12.00;99.90
25188;DHT22;13141;50.414;8.050;2023-04-01T00:06:38;12.00;99.90
25188;DHT22;13141;50.414;8.050;2023-04-01T00:09:03;12.00;99.90
25188;DHT22;13141;50.414;8.050;2023-04-01T00:11:29;12.00;99.90
25188;DHT22;13141;50.414;8.050;2023-04-01T00:13:55;11.90;99.90
25188;DHT22;13141;50.414;8.050;2023-04-01T00:16:22;11.90;99.90
25188;DHT22;13141;50.414;8.050;2023-04-01T00:18:48;11.90;99.90
25188;DHT22;13141;50.414;8.050;2023-04-01T00:21:14;11.70;99.90
25188;DHT22;13141;50.414;8.050;2023-04-01T00:23:40;11.80;99.90
25188;DHT22;13141;50.414;8.050;2023-04-01T00:26:06;11.70;99.90
25188;DHT22;13141;50.414;8.050;2023-04-01T00:28:34;11.70;99.90
25188;DHT22;13141;50.414;8.050;2023-04-01T00:31:04;11.70;99.90
25188;DHT22;13141;50.414;8.050;2023-04-01T00:33:31;11.70;99.90
25188;DHT22;13141;50.414;8.050;2023-04-01T00:36:05;11.80;99.90
25188;DHT22;13141;50.414;8.050;2023-04-01T00:38:31;11.70;99.90
25188;DHT22;13141;50.414;8.050;2023-04-01T00:40:57;11.60;99.90
25188;DHT22;13141;50.414;8.050;2023-04-01T00:43:23;11.70;99.90
25188;DHT22;13141;50.414;8.050;2023-04-01T00:45:49;11.20;99.90
25188;DHT22;13141;50.414;8.050;2023-04-01T00:48:17;11.70;99.90
25188;DHT22;13141;50.414;8.050;2023-04-01T00:50:48;11.70;99.90
25188;DHT22;13141;50.414;8.050;2023-04-01T00:53:14;11.70;99.90
25188;DHT22;13141;50.414;8.050;2023-04-01T00:55:43;11.60;99.90
25188;DHT22;13141;50.414;8.050;2023-04-01T00:58:14;11.70;99.90
25188;DHT22;13141;50.414;8.050;2023-04-01T01:00:42;11.70;99.90
25188;DHT22;13141;50.414;8.050;2023-04-01T01:03:08;11.70;99.90
25188;DHT22;13141;50.414;8.050;2023-04-01T01:05:44;11.70;99.90
25188;DHT22;13141;50.414;8.050;2023-04-01T01:08:19;11.60;99.90
25188;DHT22;13141;50.414;8.050;2023-04-01T01:10:50;11.60;99.90
25188;DHT22;13141;50.414;8.050;2023-04-01T01:13:18;11.70;99.90
25188;DHT22;13141;50.414;8.050;2023-04-01T01:15:52;11.60;99.90
25188;DHT22;13141;50.414;8.050;2023-04-01T01:18:27;11.80;99.90
25188;DHT22;13141;50.414;8.050;2023-04-01T01:21:16;11.90;99.90
25188;DHT22;13141;50.414;8.050;2023-04-01T01:24:09;11.70;99.90
25188;DHT22;13141;50.414;8.050;2023-04-01T01:26:46;11.60;99.90
25188;DHT22;13141;50.414;8.050;2023-04-01T01:32:08;11.80;99.90
25188;DHT22;13141;50.414;8.050;2023-04-01T01:34:40;12.00;99.90
25188;DHT22;13141;50.414;8.050;2023-04-01T01:37:13;11.90;99.90
25188;DHT22;13141;50.414;8.050;2023-04-01T01:39:41;11.80;99.90
25188;DHT22;13141;50.414;8.050;2023-04-01T01:42:13;11.80;99.90
25188;DHT22;13141;50.414;8.050;2023-04-01T01:44:41;11.70;99.90
25188;DHT22;13141;50.414;8.050;2023-04-01T01:47:08;11.70;99.90
25188;DHT22;13141;50.414;8.050;2023-04-01T01:49:35;11.60;99.90
25188;DHT22;13141;50.414;8.050;2023-04-01T01:52:01;11.50;99.90
25188;DHT22;13141;50.414;8.050;2023-04-01T01:54:28;11.70;99.90
25188;DHT22;13141;50.414;8.050;2023-04-01T01:57:01;11.70;99.90
25188;DHT22;13141;50.414;8.050;2023-04-01T01:59:29;11.50;99.90
25188;DHT22;13141;50.414;8.050;2023-04-01T02:01:56;11.50;99.90
25188;DHT22;13141;50.414;8.050;2023-04-01T02:04:22;11.50;99.90
25188;DHT22;13141;50.414;8.050;2023-04-01T02:06:52;11.50;99.90
25188;DHT22;13141;50.414;8.050;2023-04-01T02:09:19;11.50;99.90
25188;DHT22;13141;50.414;8.050;2023-04-01T02:11:49;11.50;99.90
25188;DHT22;13141;50.414;8.050;2023-04-01T02:14:17;11.50;99.90
25188;DHT22;13141;50.414;8.050;2023-04-01T02:16:47;11.50;99.90
25188;DHT22;13141;50.414;8.050;2023-04-01T02:19:16;11.40;99.90
25188;DHT22;13141;50.414;8.050;2023-04-01T02:21:42;11.40;99.90
25188;DHT22;13141;50.414;8.050;2023-04-01T02:24:12;11.30;99.90
25188;DHT22;13141;50.414;8.050;2023-04-01T02:26:39;11.40;99.90
25188;DHT22;13141;50.414;8.050;2023-04-01T02:29:08;11.50;99.90
25188;DHT22;13141;50.414;8.050;2023-04-01T02:31:34;11.70;99.90
25188;DHT22;13141;50.414;8.050;2023-04-01T02:34:02;11.70;99.90
25188;DHT22;13141;50.414;8.050;2023-04-01T02:36:28;11.70;99.90
25188;DHT22;13141;50.414;8.050;2023-04-01T02:38:56;11.10;99.90
25188;DHT22;13141;50.414;8.050;2023-04-01T02:41:22;11.50;99.90
25188;DHT22;13141;50.414;8.050;2023-04-01T02:43:48;11.40;99.90
25188;DHT22;13141;50.414;8.050;2023-04-01T02:46:15;11.40;99.90
25188;DHT22;13141;50.414;8.050;2023-04-01T02:48:41;11.40;99.90
25188;DHT22;13141;50.414;8.050;2023-04-01T02:51:08;11.60;99.90
25188;DHT22;13141;50.414;8.050;2023-04-01T02:53:34;11.40;99.90
25188;DHT22;13141;50.414;8.050;2023-04-01T02:56:00;11.40;99.90
25188;DHT22;13141;50.414;8.050;2023-04-01T02:58:25;11.30;99.90
25188;DHT22;13141;50.414;8.050;2023-04-01T03:00:51;11.40;99.90
25188;DHT22;13141;50.414;8.050;2023-04-01T03:03:18;11.30;99.90
25188;DHT22;13141;50.414;8.050;2023-04-01T03:05:43;11.40;99.90
25188;DHT22;13141;50.414;8.050;2023-04-01T03:08:09;11.50;99.90
25188;DHT22;13141;50.414;8.050;2023-04-01T03:10:35;11.50;99.90
25188;DHT22;13141;50.414;8.050;2023-04-01T03:13:00;11.40;99.90
25188;DHT22;13141;50.414;8.050;2023-04-01T03:15:26;11.50;99.90
25188;DHT22;13141;50.414;8.050;2023-04-01T03:17:52;11.60;99.90
25188;DHT22;13141;50.414;8.050;2023-04-01T03:20:18;11.60;99.90
25188;DHT22;13141;50.414;8.050;2023-04-01T03:22:44;11.40;99.90
25188;DHT22;13141;50.414;8.050;2023-04-01T03:25:10;11.40;99.90
25188;DHT22;13141;50.414;8.050;2023-04-01T03:27:35;11.50;99.90
25188;DHT22;13141;50.414;8.050;2023-04-01T03:30:01;11.40;99.90
25188;DHT22;13141;50.414;8.050;2023-04-01T03:32:27;11.30;99.90
25188;DHT22;13141;50.414;8.050;2023-04-01T03:34:53;11.30;99.90
25188;DHT22;13141;50.414;8.050;2023-04-01T03:37:20;11.40;99.90
25188;DHT22;13141;50.414;8.050;2023-04-01T03:39:45;11.50;99.90
25188;DHT22;13141;50.414;8.050;2023-04-01T03:42:11;11.40;99.90
25188;DHT22;13141;50.414;8.050;2023-04-01T03:44:37;11.40;99.90
25188;DHT22;13141;50.414;8.050;2023-04-01T03:47:02;11.30;99.90
25188;DHT22;13141;50.414;8.050;2023-04-01T03:49:28;11.30;99.90
25188;DHT22;13141;50.414;8.050;2023-04-01T03:51:54;11.10;99.90
25188;DHT22;13141;50.414;8.050;2023-04-01T03:54:21;11.10;99.90
25188;DHT22;13141;50.414;8.050;2023-04-01T03:56:46;11.10;99.90
25188;DHT22;13141;50.414;8.050;2023-04-01T03:59:12;11.10;99.90
25188;DHT22;13141;50.414;8.050;2023-04-01T04:01:38;11.20;99.90
25188;DHT22;13141;50.414;8.050;2023-04-01T04:04:04;11.00;99.90
25188;DHT22;13141;50.414;8.050;2023-04-01T04:06:30;11.00;99.90
25188;DHT22;13141;50.414;8.050;2023-04-01T04:08:55;10.90;99.90
25188;DHT22;13141;50.414;8.050;2023-04-01T04:11:23;10.90;99.90
25188;DHT22;13141;50.414;8.050;2023-04-01T04:13:48;10.80;99.90
25188;DHT22;13141;50.414;8.050;2023-04-01T04:16:14;10.70;99.90
25188;DHT22;13141;50.414;8.050;2023-04-01T04:18:40;10.70;99.90
25188;DHT22;13141;50.414;8.050;2023-04-01T04:21:06;10.70;99.90
25188;DHT22;13141;50.414;8.050;2023-04-01T04:23:32;10.60;99.90
25188;DHT22;13141;50.414;8.050;2023-04-01T04:25:59;10.60;99.90
25188;DHT22;13141;50.414;8.050;2023-04-01T04:28:27;10.50;99.90
25188;DHT22;13141;50.414;8.050;2023-04-01T04:30:53;10.50;99.90
25188;DHT22;13141;50.414;8.050;2023-04-01T04:33:19;10.60;99.90
25188;DHT22;13141;50.414;8.050;2023-04-01T04:35:45;10.70;99.90
25188;DHT22;13141;50.414;8.050;2023-04-01T04:38:10;10.70;99.90
25188;DHT22;13141;50.414;8.050;2023-04-01T04:40:36;10.60;99.90
25188;DHT22;13141;50.414;8.050;2023-04-01T04:43:02;10.50;99.90
25188;DHT22;13141;50.414;8.050;2023-04-01T04:45:29;10.50;99.90
25188;DHT22;13141;50.414;8.050;2023-04-01T04:47:55;10.50;99.90
25188;DHT22;13141;50.414;8.050;2023-04-01T04:50:20;10.50;99.90
25188;DHT22;13141;50.414;8.050;2023-04-01T04:52:46;10.50;99.90
25188;DHT22;13141;50.414;8.050;2023-04-01T04:55:16;10.60;99.90
25188;DHT22;13141;50.414;8.050;2023-04-01T04:57:41;10.60;99.90
25188;DHT22;13141;50.414;8.050;2023-04-01T05:00:08;10.50;99.90
25188;DHT22;13141;50.414;8.050;2023-04-01T05:02:35;10.60;99.90
25188;DHT22;13141;50.414;8.050;2023-04-01T05:05:01;10.40;99.90
25188;DHT22;13141;50.414;8.050;2023-04-01T05:07:27;10.50;99.90
25188;DHT22;13141;50.414;8.050;2023-04-01T05:09:52;10.50;99.90
25188;DHT22;13141;50.414;8.050;2023-04-01T05:12:18;10.50;99.90
25188;DHT22;13141;50.414;8.050;2023-04-01T05:14:44;10.50;99.90
25188;DHT22;13141;50.414;8.050;2023-04-01T05:17:10;10.60;99.90
25188;DHT22;13141;50.414;8.050;2023-04-01T05:19:37;10.50;99.90
25188;DHT22;13141;50.414;8.050;2023-04-01T05:22:04;9.80;99.90
25188;DHT22;13141;50.414;8.050;2023-04-01T05:24:29;10.50;99.90
25188;DHT22;13141;50.414;8.050;2023-04-01T05:26:55;10.50;99.90
25188;DHT22;13141;50.414;8.050;2023-04-01T05:29:21;10.40;99.90
25188;DHT22;13141;50.414;8.050;2023-04-01T05:31:46;10.50;99.90
25188;DHT22;13141;50.414;8.050;2023-04-01T05:34:13;10.40;99.90
25188;DHT22;13141;50.414;8.050;2023-04-01T05:36:40;10.40;99.90
25188;DHT22;13141;50.414;8.050;2023-04-01T05:39:07;10.50;99.90
25188;DHT22;13141;50.414;8.050;2023-04-01T05:41:35;10.40;99.90
25188;DHT22;13141;50.414;8.050;2023-04-01T05:44:00;10.50;99.90
25188;DHT22;13141;50.414;8.050;2023-04-01T05:46:26;10.60;99.90
25188;DHT22;13141;50.414;8.050;2023-04-01T05:48:52;10.60;99.90
25188;DHT22;13141;50.414;8.050;2023-04-01T05:51:17;10.70;99.90
25188;DHT22;13141;50.414;8.050;2023-04-01T05:53:44;10.50;99.90
25188;DHT22;13141;50.414;8.050;2023-04-01T05:56:10;10.40;99.90
25188;DHT22;13141;50.414;8.050;2023-04-01T05:58:37;10.40;99.90
25188;DHT22;13141;50.414;8.050;2023-04-01T06:01:03;10.50;99.90
25188;DHT22;13141;50.414;8.050;2023-04-01T06:03:29;10.50;99.90
25188;DHT22;13141;50.414;8.050;2023-04-01T06:05:55;10.50;99.90
25188;DHT22;13141;50.414;8.050;2023-04-01T06:08:21;10.50;99.90
25188;DHT22;13141;50.414;8.050;2023-04-01T06:11:10;10.40;99.90
25188;DHT22;13141;50.414;8.050;2023-04-01T06:13:50;10.60;99.90
25188;DHT22;13141;50.414;8.050;2023-04-01T06:16:27;10.60;99.90
25188;DHT22;13141;50.414;8.050;2023-04-01T06:19:04;10.80;99.90
25188;DHT22;13141;50.414;8.050;2023-04-01T06:21:56;10.70;99.90
25188;DHT22;13141;50.414;8.050;2023-04-01T06:24:37;10.50;99.90
25188;DHT22;13141;50.414;8.050;2023-04-01T06:27:13;10.50;99.90
25188;DHT22;13141;50.414;8.050;2023-04-01T06:29:50;10.60;99.90
25188;DHT22;13141;50.414;8.050;2023-04-01T06:32:39;10.60;99.90
25188;DHT22;13141;50.414;8.050;2023-04-01T06:35:19;10.50;99.90
25188;DHT22;13141;50.414;8.050;2023-04-01T06:38:10;10.50;99.90
25188;DHT22;13141;50.414;8.050;2023-04-01T06:40:57;10.50;99.90
25188;DHT22;13141;50.414;8.050;2023-04-01T06:43:37;10.60;99.90
25188;DHT22;13141;50.414;8.050;2023-04-01T06:46:11;10.60;99.90
25188;DHT22;13141;50.414;8.050;2023-04-01T06:48:53;10.60;99.90
25188;DHT22;13141;50.414;8.050;2023-04-01T06:51:27;10.90;99.90
25188;DHT22;13141;50.414;8.050;2023-04-01T06:54:02;10.70;99.90
25188;DHT22;13141;50.414;8.050;2023-04-01T06:56:29;10.80;99.90
25188;DHT22;13141;50.414;8.050;2023-04-01T06:58:58;10.70;99.90
25188;DHT22;13141;50.414;8.050;2023-04-01T07:01:31;10.70;99.90
25188;DHT22;13141;50.414;8.050;2023-04-01T07:04:01;10.70;99.90
25188;DHT22;13141;50.414;8.050;2023-04-01T07:06:31;10.80;99.90
25188;DHT22;13141;50.414;8.050;2023-04-01T07:09:02;10.80;99.90
25188;DHT22;13141;50.414;8.050;2023-04-01T07:11:31;10.80;99.90
25188;DHT22;13141;50.414;8.050;2023-04-01T07:14:02;10.80;99.90
25188;DHT22;13141;50.414;8.050;2023-04-01T07:16:32;10.90;99.90
25188;DHT22;13141;50.414;8.050;2023-04-01T07:19:02;10.80;99.90
25188;DHT22;13141;50.414;8.050;2023-04-01T07:21:32;10.80;99.90
25188;DHT22;13141;50.414;8.050;2023-04-01T07:24:03;10.90;99.90
25188;DHT22;13141;50.414;8.050;2023-04-01T07:26:30;11.00;99.90
25188;DHT22;13141;50.414;8.050;2023-04-01T07:28:56;11.10;99.90
25188;DHT22;13141;50.414;8.050;2023-04-01T07:31:36;11.10;99.90
25188;DHT22;13141;50.414;8.050;2023-04-01T07:34:09;11.10;99.90
25188;DHT22;13141;50.414;8.050;2023-04-01T07:36:40;11.10;99.90
25188;DHT22;13141;50.414;8.050;2023-04-01T07:39:16;11.10;99.90
25188;DHT22;13141;50.414;8.050;2023-04-01T07:41:51;11.10;99.90
25188;DHT22;13141;50.414;8.050;2023-04-01T07:44:24;11.20;99.90
25188;DHT22;13141;50.414;8.050;2023-04-01T07:49:55;11.20;99.90
25188;DHT22;13141;50.414;8.050;2023-04-01T07:52:31;11.10;99.90
25188;DHT22;13141;50.414;8.050;2023-04-01T07:55:06;11.20;99.90
25188;DHT22;13141;50.414;8.050;2023-04-01T07:57:38;11.10;99.90
25188;DHT22;13141;50.414;8.050;2023-04-01T08:00:13;11.20;99.90
25188;DHT22;13141;50.414;8.050;2023-04-01T08:02:55;11.30;99.90
25188;DHT22;13141;50.414;8.050;2023-04-01T08:05:27;11.40;99.90
25188;DHT22;13141;50.414;8.050;2023-04-01T08:08:00;11.40;99.90
25188;DHT22;13141;50.414;8.050;2023-04-01T08:10:31;11.40;99.90
25188;DHT22;13141;50.414;8.050;2023-04-01T08:13:06;11.50;99.90
25188;DHT22;13141;50.414;8.050;2023-04-01T08:15:37;11.40;99.90
25188;DHT22;13141;50.414;8.050;2023-04-01T08:18:16;11.40;99.90
25188;DHT22;13141;50.414;8.050;2023-04-01T08:20:47;11.40;99.90
25188;DHT22;13141;50.414;8.050;2023-04-01T08:23:16;11.40;99.90
25188;DHT22;13141;50.414;8.050;2023-04-01T08:25:47;11.50;99.90
25188;DHT22;13141;50.414;8.050;2023-04-01T08:28:17;11.60;99.90
25188;DHT22;13141;50.414;8.050;2023-04-01T08:30:49;11.60;99.90
25188;DHT22;13141;50.414;8.050;2023-04-01T08:33:21;11.70;99.90
25188;DHT22;13141;50.414;8.050;2023-04-01T08:35:52;11.80;99.90
25188;DHT22;13141;50.414;8.050;2023-04-01T08:38:24;11.90;99.90
25188;DHT22;13141;50.414;8.050;2023-04-01T08:41:07;11.80;99.90
25188;DHT22;13141;50.414;8.050;2023-04-01T08:43:54;11.70;99.90
25188;DHT22;13141;50.414;8.050;2023-04-01T08:46:48;11.70;99.90
25188;DHT22;13141;50.414;8.050;2023-04-01T08:49:36;11.60;99.90
25188;DHT22;13141;50.414;8.050;2023-04-01T08:52:22;11.60;99.90
25188;DHT22;13141;50.414;8.050;2023-04-01T08:55:22;11.70;99.90
25188;DHT22;13141;50.414;8.050;2023-04-01T08:58:04;11.90;99.90
25188;DHT22;13141;50.414;8.050;2023-04-01T09:00:40;12.00;99.90
25188;DHT22;13141;50.414;8.050;2023-04-01T09:03:37;12.20;99.90
25188;DHT22;13141;50.414;8.050;2023-04-01T09:06:29;12.30;99.90
25188;DHT22;13141;50.414;8.050;2023-04-01T09:12:24;12.50;99.90
25188;DHT22;13141;50.414;8.050;2023-04-01T09:15:16;12.50;99.90
25188;DHT22;13141;50.414;8.050;2023-04-01T09:21:09;12.40;99.90
25188;DHT22;13141;50.414;8.050;2023-04-01T09:23:55;12.30;99.90
25188;DHT22;13141;50.414;8.050;2023-04-01T09:29:26;12.30;99.90
25188;DHT22;13141;50.414;8.050;2023-04-01T09:32:18;12.40;99.90
25188;DHT22;13141;50.414;8.050;2023-04-01T09:34:55;12.30;99.90
25188;DHT22;13141;50.414;8.050;2023-04-01T09:37:34;12.40;99.90
25188;DHT22;13141;50.414;8.050;2023-04-01T09:40:16;12.30;99.90
25188;DHT22;13141;50.414;8.050;2023-04-01T09:42:51;12.30;99.90
25188;DHT22;13141;50.414;8.050;2023-04-01T09:45:36;12.50;99.90
25188;DHT22;13141;50.414;8.050;2023-04-01T09:48:14;12.30;99.90
25188;DHT22;13141;50.414;8.050;2023-04-01T09:50:49;12.20;99.90
25188;DHT22;13141;50.414;8.050;2023-04-01T09:53:35;12.30;99.90
25188;DHT22;13141;50.414;8.050;2023-04-01T09:56:22;12.30;99.90
25188;DHT22;13141;50.414;8.050;2023-04-01T09:59:07;12.30;99.90
25188;DHT22;13141;50.414;8.050;2023-04-01T10:01:49;12.10;99.90
25188;DHT22;13141;50.414;8.050;2023-04-01T10:10:55;12.40;99.90
25188;DHT22;13141;50.414;8.050;2023-04-01T10:20:02;12.40;99.90
25188;DHT22;13141;50.414;8.050;2023-04-01T10:22:54;12.40;99.90
25188;DHT22;13141;50.414;8.050;2023-04-01T10:25:33;12.20;99.90
25188;DHT22;13141;50.414;8.050;2023-04-01T10:28:35;12.30;99.90
25188;DHT22;13141;50.414;8.050;2023-04-01T10:34:37;12.40;99.90
25188;DHT22;13141;50.414;8.050;2023-04-01T10:37:15;12.50;99.90
25188;DHT22;13141;50.414;8.050;2023-04-01T10:40:13;12.50;99.90
25188;DHT22;13141;50.414;8.050;2023-04-01T10:46:11;12.50;99.90
25188;DHT22;13141;50.414;8.050;2023-04-01T10:49:07;12.50;99.90
25188;DHT22;13141;50.414;8.050;2023-04-01T10:54:55;12.60;99.90
25188;DHT22;13141;50.414;8.050;2023-04-01T10:57:42;12.60;99.90
25188;DHT22;13141;50.414;8.050;2023-04-01T11:01:03;12.70;99.90
25188;DHT22;13141;50.414;8.050;2023-04-01T11:04:09;12.80;99.90
25188;DHT22;13141;50.414;8.050;2023-04-01T11:22:35;13.00;99.90
25188;DHT22;13141;50.414;8.050;2023-04-01T11:33:55;12.90;99.90
25188;DHT22;13141;50.414;8.050;2023-04-01T11:36:33;12.80;99.90
25188;DHT22;13141;50.414;8.050;2023-04-01T11:39:16;12.90;99.90
25188;DHT22;13141;50.414;8.050;2023-04-01T11:41:52;12.80;99.90
25188;DHT22;13141;50.414;8.050;2023-04-01T11:44:25;12.90;99.90
25188;DHT22;13141;50.414;8.050;2023-04-01T11:47:10;13.10;99.90
25188;DHT22;13141;50.414;8.050;2023-04-01T11:50:00;13.00;99.90
25188;DHT22;13141;50.414;8.050;2023-04-01T11:55:24;13.10;99.90
25188;DHT22;13141;50.414;8.050;2023-04-01T11:58:18;13.20;99.90
25188;DHT22;13141;50.414;8.050;2023-04-01T12:04:03;13.20;99.90
25188;DHT22;13141;50.414;8.050;2023-04-01T12:06:36;13.20;99.90
25188;DHT22;13141;50.414;8.050;2023-04-01T12:09:10;13.30;99.90
25188;DHT22;13141;50.414;8.050;2023-04-01T12:11:44;13.30;99.90
25188;DHT22;13141;50.414;8.050;2023-04-01T12:14:16;13.20;99.90
25188;DHT22;13141;50.414;8.050;2023-04-01T12:16:59;13.30;99.90
25188;DHT22;13141;50.414;8.050;2023-04-01T12:19:35;13.30;99.90
25188;DHT22;13141;50.414;8.050;2023-04-01T12:22:23;13.40;99.90
25188;DHT22;13141;50.414;8.050;2023-04-01T12:24:55;13.50;99.90
25188;DHT22;13141;50.414;8.050;2023-04-01T12:27:39;13.70;99.90
25188;DHT22;13141;50.414;8.050;2023-04-01T12:30:34;13.90;99.90
25188;DHT22;13141;50.414;8.050;2023-04-01T12:33:40;14.00;99.90
25188;DHT22;13141;50.414;8.050;2023-04-01T12:36:18;14.00;99.90
25188;DHT22;13141;50.414;8.050;2023-04-01T12:38:57;14.00;99.90
25188;DHT22;13141;50.414;8.050;2023-04-01T12:41:30;14.00;99.90
25188;DHT22;13141;50.414;8.050;2023-04-01T12:47:13;14.10;99.90
25188;DHT22;13141;50.414;8.050;2023-04-01T12:50:14;14.20;99.90
25188;DHT22;13141;50.414;8.050;2023-04-01T12:52:54;14.20;99.90
25188;DHT22;13141;50.414;8.050;2023-04-01T12:55:45;14.20;99.90
25188;DHT22;13141;50.414;8.050;2023-04-01T12:58:42;14.40;99.90
25188;DHT22;13141;50.414;8.050;2023-04-01T13:01:21;14.50;99.90
25188;DHT22;13141;50.414;8.050;2023-04-01T13:07:13;14.20;99.90
25188;DHT22;13141;50.414;8.050;2023-04-01T13:09:47;14.10;99.90
25188;DHT22;13141;50.414;8.050;2023-04-01T13:12:34;14.10;99.90
25188;DHT22;13141;50.414;8.050;2023-04-01T13:15:23;14.20;99.90
25188;DHT22;13141;50.414;8.050;2023-04-01T13:17:53;14.20;99.90
25188;DHT22;13141;50.414;8.050;2023-04-01T13:20:32;14.10;99.90
25188;DHT22;13141;50.414;8.050;2023-04-01T13:23:08;14.30;99.90
25188;DHT22;13141;50.414;8.050;2023-04-01T13:25:41;14.50;99.90
25188;DHT22;13141;50.414;8.050;2023-04-01T13:28:14;14.80;99.90
25188;DHT22;13141;50.414;8.050;2023-04-01T13:30:47;14.90;99.90
25188;DHT22;13141;50.414;8.050;2023-04-01T13:33:20;15.10;99.90
25188;DHT22;13141;50.414;8.050;2023-04-01T13:35:53;15.30;99.90
25188;DHT22;13141;50.414;8.050;2023-04-01T13:38:45;15.00;99.90
25188;DHT22;13141;50.414;8.050;2023-04-01T13:41:21;14.90;99.90
25188;DHT22;13141;50.414;8.050;2023-04-01T13:43:55;15.20;99.90
25188;DHT22;13141;50.414;8.050;2023-04-01T13:46:34;15.80;99.90
25188;DHT22;13141;50.414;8.050;2023-04-01T13:49:29;15.90;99.90
25188;DHT22;13141;50.414;8.050;2023-04-01T13:58:00;17.40;99.90
25188;DHT22;13141;50.414;8.050;2023-04-01T14:00:38;17.20;99.90
25188;DHT22;13141;50.414;8.050;2023-04-01T14:03:28;16.70;99.90
25188;DHT22;13141;50.414;8.050;2023-04-01T14:06:31;16.60;99.90
25188;DHT22;13141;50.414;8.050;2023-04-01T14:09:17;16.30;99.90
25188;DHT22;13141;50.414;8.050;2023-04-01T14:11:55;16.10;99.90
25188;DHT22;13141;50.414;8.050;2023-04-01T14:14:28;16.00;99.90
25188;DHT22;13141;50.414;8.050;2023-04-01T14:20:25;15.50;99.90
25188;DHT22;13141;50.414;8.050;2023-04-01T14:23:07;15.30;99.90
25188;DHT22;13141;50.414;8.050;2023-04-01T14:28:52;15.20;99.90
25188;DHT22;13141;50.414;8.050;2023-04-01T14:31:30;15.20;99.90
25188;DHT22;13141;50.414;8.050;2023-04-01T14:34:08;15.20;99.90
25188;DHT22;13141;50.414;8.050;2023-04-01T14:36:53;15.20;99.90
25188;DHT22;13141;50.414;8.050;2023-04-01T14:39:43;14.90;99.90
25188;DHT22;13141;50.414;8.050;2023-04-01T14:42:44;15.20;99.90
25188;DHT22;13141;50.414;8.050;2023-04-01T14:48:21;15.20;99.90
25188;DHT22;13141;50.414;8.050;2023-04-01T14:50:51;15.20;99.90
25188;DHT22;13141;50.414;8.050;2023-04-01T14:53:27;15.20;99.90
25188;DHT22;13141;50.414;8.050;2023-04-01T14:55:54;15.10;99.90
25188;DHT22;13141;50.414;8.050;2023-04-01T14:58:22;15.00;99.90
25188;DHT22;13141;50.414;8.050;2023-04-01T15:00:54;14.80;99.90
25188;DHT22;13141;50.414;8.050;2023-04-01T15:03:26;14.60;99.90
25188;DHT22;13141;50.414;8.050;2023-04-01T15:06:00;14.50;99.90
25188;DHT22;13141;50.414;8.050;2023-04-01T15:08:29;14.40;99.90
25188;DHT22;13141;50.414;8.050;2023-04-01T15:11:20;14.30;99.90
25188;DHT22;13141;50.414;8.050;2023-04-01T15:14:01;14.30;99.90
25188;DHT22;13141;50.414;8.050;2023-04-01T15:16:36;14.20;99.90
25188;DHT22;13141;50.414;8.050;2023-04-01T15:19:15;14.10;99.90
25188;DHT22;13141;50.414;8.050;2023-04-01T15:22:06;14.10;99.90
25188;DHT22;13141;50.414;8.050;2023-04-01T15:24:43;14.20;99.90
25188;DHT22;13141;50.414;8.050;2023-04-01T15:27:19;14.10;99.90
25188;DHT22;13141;50.414;8.050;2023-04-01T15:30:02;14.10;99.90
25188;DHT22;13141;50.414;8.050;2023-04-01T15:32:38;14.10;99.90
25188;DHT22;13141;50.414;8.050;2023-04-01T15:35:18;14.20;99.90
25188;DHT22;13141;50.414;8.050;2023-04-01T15:37:50;14.10;99.90
25188;DHT22;13141;50.414;8.050;2023-04-01T15:40:21;14.20;99.90
25188;DHT22;13141;50.414;8.050;2023-04-01T15:42:59;14.20;99.90
25188;DHT22;13141;50.414;8.050;2023-04-01T15:45:38;14.20;99.90
25188;DHT22;13141;50.414;8.050;2023-04-01T15:48:17;14.10;99.90
25188;DHT22;13141;50.414;8.050;2023-04-01T15:50:54;14.20;99.90
25188;DHT22;13141;50.414;8.050;2023-04-01T15:53:43;14.30;99.90
25188;DHT22;13141;50.414;8.050;2023-04-01T15:56:22;14.30;99.90
25188;DHT22;13141;50.414;8.050;2023-04-01T15:59:00;14.40;99.90
25188;DHT22;13141;50.414;8.050;2023-04-01T16:01:35;14.30;99.90
25188;DHT22;13141;50.414;8.050;2023-04-01T16:04:16;14.30;99.90
25188;DHT22;13141;50.414;8.050;2023-04-01T16:07:02;14.40;99.90
25188;DHT22;13141;50.414;8.050;2023-04-01T16:09:47;14.40;99.90
25188;DHT22;13141;50.414;8.050;2023-04-01T16:12:18;14.40;99.90
25188;DHT22;13141;50.414;8.050;2023-04-01T16:14:55;14.40;99.90
25188;DHT22;13141;50.414;8.050;2023-04-01T16:17:36;14.40;99.90
25188;DHT22;13141;50.414;8.050;2023-04-01T16:20:17;14.30;99.90
25188;DHT22;13141;50.414;8.050;2023-04-01T16:22:52;14.30;99.90
25188;DHT22;13141;50.414;8.050;2023-04-01T16:25:25;14.30;99.90
25188;DHT22;13141;50.414;8.050;2023-04-01T16:27:56;14.30;99.90
25188;DHT22;13141;50.414;8.050;2023-04-01T16:30:33;14.30;99.90
25188;DHT22;13141;50.414;8.050;2023-04-01T16:33:04;14.30;99.90
25188;DHT22;13141;50.414;8.050;2023-04-01T16:35:40;14.40;99.90
25188;DHT22;13141;50.414;8.050;2023-04-01T16:38:13;14.40;99.90
25188;DHT22;13141;50.414;8.050;2023-04-01T16:40:44;14.40;99.90
25188;DHT22;13141;50.414;8.050;2023-04-01T16:43:19;14.40;99.90
25188;DHT22;13141;50.414;8.050;2023-04-01T16:45:55;14.30;99.90
25188;DHT22;13141;50.414;8.050;2023-04-01T16:48:27;14.20;99.90
25188;DHT22;13141;50.414;8.050;2023-04-01T16:50:58;14.30;99.90
25188;DHT22;13141;50.414;8.050;2023-04-01T16:53:36;14.20;99.90
25188;DHT22;13141;50.414;8.050;2023-04-01T16:56:11;14.20;99.90
25188;DHT22;13141;50.414;8.050;2023-04-01T16:58:41;14.10;99.90
25188;DHT22;13141;50.414;8.050;2023-04-01T17:01:16;14.00;99.90
25188;DHT22;13141;50.414;8.050;2023-04-01T17:03:44;14.00;99.90
25188;DHT22;13141;50.414;8.050;2023-04-01T17:06:19;13.90;99.90
25188;DHT22;13141;50.414;8.050;2023-04-01T17:09:02;13.90;99.90
25188;DHT22;13141;50.414;8.050;2023-04-01T17:11:35;13.90;99.90
25188;DHT22;13141;50.414;8.050;2023-04-01T17:14:12;13.90;99.90
25188;DHT22;13141;50.414;8.050;2023-04-01T17:17:18;13.70;99.90
25188;DHT22;13141;50.414;8.050;2023-04-01T17:20:02;13.70;99.90
25188;DHT22;13141;50.414;8.050;2023-04-01T17:22:36;13.60;99.90
25188;DHT22;13141;50.414;8.050;2023-04-01T17:27:52;13.50;99.90
25188;DHT22;13141;50.414;8.050;2023-04-01T17:30:30;13.40;99.90
25188;DHT22;13141;50.414;8.050;2023-04-01T17:36:08;13.30;99.90
25188;DHT22;13141;50.414;8.050;2023-04-01T17:38:54;13.30;99.90
25188;DHT22;13141;50.414;8.050;2023-04-01T17:41:31;13.30;99.90
25188;DHT22;13141;50.414;8.050;2023-04-01T17:44:11;13.30;99.90
25188;DHT22;13141;50.414;8.050;2023-04-01T17:46:56;13.20;99.90
25188;DHT22;13141;50.414;8.050;2023-04-01T17:49:28;13.10;99.90
25188;DHT22;13141;50.414;8.050;2023-04-01T17:51:59;13.10;99.90